createdAt,value
2023-03-28T00:04:10.021Z,1020.21
2023-03-28T00:10:32.995Z,1020.25
2023-03-28T00:16:53.022Z,1020.31
2023-03-28T00:23:16.011Z,1020.35
2023-03-28T00:29:36.002Z,1020.37
2023-03-28T00:35:59.097Z,1020.41
2023-03-28T00:42:19.021Z,1020.43
2023-03-28T00:48:42.035Z,1020.41
2023-03-28T00:55:02.048Z,1020.41
2023-03-28T01:01:25.024Z,1020.41
2023-03-28T01:07:45.011Z,1020.39
2023-03-28T01:14:08.053Z,1020.37
2023-03-28T01:20:28.006Z,1020.39
2023-03-28T01:26:51.036Z,1020.41
2023-03-28T01:33:11.077Z,1020.43
2023-03-28T01:39:34.042Z,1020.43
2023-03-28T01:45:54.022Z,1020.43
2023-03-28T01:52:17.039Z,1020.39
2023-03-28T01:58:36.986Z,1020.39
2023-03-28T02:05:00.007Z,1020.35
2023-03-28T02:11:20.013Z,1020.33
2023-03-28T02:17:43.150Z,1020.29
2023-03-28T02:24:03.032Z,1020.27
2023-03-28T02:30:25.999Z,1020.27
2023-03-28T02:36:45.992Z,1020.25
2023-03-28T02:43:09.096Z,1020.21
2023-03-28T02:49:33.152Z,1020.21
2023-03-28T02:55:52.067Z,1020.25
2023-03-28T03:02:12.024Z,1020.29
2023-03-28T03:08:35.020Z,1020.27
2023-03-28T03:14:55.038Z,1020.31
2023-03-28T03:21:17.991Z,1020.35
2023-03-28T03:27:38.131Z,1020.39
2023-03-28T03:34:00.991Z,1020.41
2023-03-28T03:40:21.084Z,1020.41
2023-03-28T03:46:44.058Z,1020.45
2023-03-28T03:53:04.040Z,1020.47
2023-03-28T03:59:26.975Z,1020.47
2023-03-28T04:05:47.072Z,1020.49
2023-03-28T04:29:36.022Z,1020.66
2023-03-28T04:35:59.150Z,1020.62
2023-03-28T04:42:19.011Z,1020.64
2023-03-28T04:48:42.008Z,1020.66
2023-03-28T04:55:02.022Z,1020.72
2023-03-28T05:01:25.019Z,1020.8
2023-03-28T05:07:45.071Z,1020.84
2023-03-28T05:14:07.997Z,1020.93
2023-03-28T05:20:28.032Z,1020.95
2023-03-28T05:26:51.018Z,1020.98
2023-03-28T05:33:11.061Z,1021.02
2023-03-28T05:39:33.980Z,1021.06
2023-03-28T05:45:54.157Z,1021.06
2023-03-28T05:52:16.973Z,1021.1
2023-03-28T05:58:37.034Z,1021.12
2023-03-28T06:05:00.034Z,1021.1
2023-03-28T06:11:19.987Z,1021.1
2023-03-28T06:17:43.150Z,1021.1
2023-03-28T06:24:03.110Z,1021.14
2023-03-28T06:30:25.978Z,1021.18
2023-03-28T06:36:46.037Z,1021.24
2023-03-28T06:43:09.021Z,1021.34
2023-03-28T06:49:29.008Z,1021.36
2023-03-28T06:55:52.017Z,1021.47
2023-03-28T07:02:12.012Z,1021.53
2023-03-28T07:08:35.026Z,1021.61
2023-03-28T07:14:55.031Z,1021.59
2023-03-28T07:21:18.014Z,1021.65
2023-03-28T07:27:38.033Z,1021.59
2023-03-28T07:34:01.016Z,1021.63
2023-03-28T07:40:21.064Z,1021.63
2023-03-28T07:46:44.025Z,1021.65
2023-03-28T07:53:03.985Z,1021.67
2023-03-28T07:59:30.741Z,1021.73
2023-03-28T08:05:51.055Z,1021.71
2023-03-28T08:12:14.057Z,1021.67
2023-03-28T08:18:34.031Z,1021.65
2023-03-28T08:24:57.031Z,1021.63
2023-03-28T08:31:17.102Z,1021.63
2023-03-28T08:37:40.032Z,1021.61
2023-03-28T08:44:00.121Z,1021.61
2023-03-28T08:50:23.169Z,1021.65
2023-03-28T08:56:43.036Z,1021.67
2023-03-28T09:03:06.226Z,1021.67
2023-03-28T09:09:26.061Z,1021.63
2023-03-28T09:31:57.019Z,1021.57
2023-03-28T09:38:19.992Z,1021.57
2023-03-28T09:44:51.298Z,1021.51
2023-03-28T09:51:03.183Z,1021.43
2023-03-28T09:57:23.122Z,1021.34
2023-03-28T10:03:45.993Z,1021.28
2023-03-28T10:10:06.043Z,1021.22
2023-03-28T10:16:29.026Z,1021.16
2023-03-28T10:22:48.987Z,1021.12
2023-03-28T10:29:12.048Z,1021.08
2023-03-28T10:35:32.032Z,1021
2023-03-28T10:41:55.005Z,1020.93
2023-03-28T10:48:15.065Z,1020.76
2023-03-28T10:54:37.980Z,1020.6
2023-03-28T11:00:58.264Z,1020.49
2023-03-28T11:07:21.020Z,1020.47
2023-03-28T11:13:41.014Z,1020.43
2023-03-28T11:20:03.992Z,1020.37
2023-03-28T11:26:24.008Z,1020.21
2023-03-28T11:32:47.023Z,1020.19
2023-03-28T11:39:06.990Z,1020.07
2023-03-28T11:45:42.332Z,1020
2023-03-28T11:51:49.993Z,1019.9
2023-03-28T11:58:13.195Z,1019.8
2023-03-28T12:04:33.184Z,1019.68
2023-03-28T12:10:56.345Z,1019.59
2023-03-28T12:17:16.038Z,1019.49
2023-03-28T12:23:39.023Z,1019.39
2023-03-28T12:29:59.005Z,1019.25
2023-03-28T12:36:21.987Z,1019.21
2023-03-28T12:42:42.119Z,1019.08
2023-03-28T12:49:05.017Z,1018.98
2023-03-28T12:55:25.032Z,1018.8
2023-03-28T13:01:48.094Z,1018.73
2023-03-28T13:08:07.985Z,1018.65
2023-03-28T13:14:30.988Z,1018.53
2023-03-28T13:20:51.024Z,1018.45
2023-03-28T13:27:13.983Z,1018.35
2023-03-28T13:33:34.009Z,1018.21
2023-03-28T13:39:57.004Z,1018.11
2023-03-28T13:46:17.021Z,1018.05
2023-03-28T13:52:39.994Z,1017.95
2023-03-28T13:59:00.030Z,1017.81
2023-03-28T14:05:23.026Z,1017.7
2023-03-28T14:11:42.989Z,1017.62
2023-03-28T14:18:06.079Z,1017.48
2023-03-28T14:24:26.010Z,1017.34
2023-03-28T14:30:49.007Z,1017.25
2023-03-28T14:54:12.533Z,1016.88
2023-03-28T15:00:32.007Z,1016.74
2023-03-28T15:06:55.003Z,1016.66
2023-03-28T15:13:15.051Z,1016.58
2023-03-28T15:19:38.003Z,1016.43
2023-03-28T15:25:57.993Z,1016.23
2023-03-28T15:32:21.079Z,1016.13
2023-03-28T15:38:41.001Z,1016.03
2023-03-28T15:45:03.982Z,1015.9
2023-03-28T15:51:24.192Z,1015.69
2023-03-28T15:57:47.059Z,1015.54
2023-03-28T16:04:07.279Z,1015.4
2023-03-28T16:10:30.051Z,1015.36
2023-03-28T16:16:50.010Z,1015.34
2023-03-28T16:23:16.031Z,1015.28
2023-03-28T16:29:36.236Z,1015.2
2023-03-28T16:35:59.284Z,1015.11
2023-03-28T16:42:19.009Z,1014.99
2023-03-28T16:48:42.015Z,1014.95
2023-03-28T16:55:02.006Z,1014.89
2023-03-28T17:01:25.112Z,1014.91
2023-03-28T17:07:45.039Z,1014.91
2023-03-28T17:14:07.984Z,1014.89
2023-03-28T17:20:27.982Z,1014.85
2023-03-28T17:26:51.317Z,1014.89
2023-03-28T17:33:11.110Z,1014.91
2023-03-28T17:39:34.003Z,1014.93
2023-03-28T17:45:54.032Z,1014.89
2023-03-28T17:52:16.972Z,1014.85
2023-03-28T17:58:36.989Z,1014.85
2023-03-28T18:05:00.002Z,1014.79
2023-03-28T18:11:20.020Z,1014.81
2023-03-28T18:17:43.038Z,1014.83
2023-03-28T18:24:03.078Z,1014.83
2023-03-28T18:30:26.008Z,1014.81
2023-03-28T18:36:45.996Z,1014.79
2023-03-28T18:43:09.257Z,1014.83
2023-03-28T18:49:29.007Z,1014.97
2023-03-28T18:55:52.026Z,1014.97
2023-03-28T19:02:12.026Z,1015.05
2023-03-28T19:08:35.039Z,1015.18
2023-03-28T19:14:55.087Z,1015.32
2023-03-28T19:21:18.026Z,1015.44
2023-03-28T19:27:38.057Z,1015.52
2023-03-28T19:34:00.983Z,1015.54
2023-03-28T19:40:21.000Z,1015.6
2023-03-28T19:46:44.020Z,1015.56
2023-03-28T20:08:35.026Z,1015.2
2023-03-28T20:14:57.978Z,1015.01
2023-03-28T20:21:18.012Z,1014.85
2023-03-28T20:27:41.006Z,1014.79
2023-03-28T20:34:01.200Z,1014.81
2023-03-28T20:40:24.997Z,1014.79
2023-03-28T20:46:45.150Z,1014.79
2023-03-28T20:53:08.016Z,1014.87
2023-03-28T20:59:27.990Z,1014.81
2023-03-28T21:05:51.034Z,1014.79
2023-03-28T21:12:11.005Z,1014.71
2023-03-28T21:18:34.010Z,1014.66
2023-03-28T21:24:54.015Z,1014.56
2023-03-28T21:31:17.052Z,1014.44
2023-03-28T21:37:36.986Z,1014.36
2023-03-28T21:44:00.034Z,1014.32
2023-03-28T21:50:20.003Z,1014.21
2023-03-28T21:56:43.023Z,1014.09
2023-03-28T22:03:03.118Z,1014.09
2023-03-28T22:09:26.053Z,1014.07
2023-03-28T22:15:46.090Z,1014.07
2023-03-28T22:22:09.085Z,1014.03
2023-03-28T22:28:29.009Z,1013.91
2023-03-28T22:34:52.041Z,1013.81
2023-03-28T22:41:12.050Z,1013.66
2023-03-28T22:47:35.066Z,1013.52
2023-03-28T22:53:55.039Z,1013.46
2023-03-28T23:00:18.026Z,1013.42
2023-03-28T23:23:16.046Z,1013.27
2023-03-28T23:29:35.983Z,1013.08
2023-03-28T23:35:59.077Z,1012.98
2023-03-28T23:42:19.026Z,1012.89
2023-03-28T23:48:42.008Z,1012.81
2023-03-28T23:55:02.008Z,1012.75
